CheckWX is a tool to help pilots better visualize weather data.  It is not intended as a substitute for an official pre-flight weather briefing.

02:21:49 UTC

CYCX METAR
CFB Gagetown Heliport
Gagetown, Canada
Current

22 mins ago

CYCX 130200Z AUTO 00000KT 9SM FEW092 M13/M15 A3068 RMK SLP393
Observed
Dec-13 @ 02:00 UTC
Visibility
9 SM
Flight Rules
VFR
Cloud Levels
  • Few at 9,200' AGL
Temperature
-13°C / 9°F
Dewpoint
-15°C / 5°F
Humidity
85%
Altimeter
30.68" Hg
Pressure
1038.92 hPa
Previous

1 hour ago

CYCX 130100Z AUTO 27004KT 9SM CLR M10/M17 A3067 RMK SLP390
Observed
Dec-13 @ 01:00 UTC
Wind
  • 270° at 4 KTS
Visibility
9 SM
Flight Rules
VFR
Cloud Levels
  • Clear skies
Temperature
-10°C / 14°F
Dewpoint
-17°C / 1°F
Humidity
57%
Altimeter
30.67" Hg
Pressure
1038.62 hPa
Previous

2 hours ago

CYCX 130000Z AUTO 27004KT 9SM FEW095 M10/M17 A3065 RMK SLP382
Observed
Dec-13 @ 00:00 UTC
Wind
  • 270° at 4 KTS
Visibility
9 SM
Flight Rules
VFR
Cloud Levels
  • Few at 9,500' AGL
Temperature
-10°C / 14°F
Dewpoint
-17°C / 1°F
Humidity
57%
Altimeter
30.65" Hg
Pressure
1037.92 hPa